createdAt,value
2017-11-15T00:00:32.342Z,18.48
2017-11-15T00:01:06.215Z,20.73
2017-11-15T00:01:40.434Z,23.73
2017-11-15T00:02:14.359Z,21.00
2017-11-15T00:02:48.445Z,20.65
2017-11-15T00:03:22.330Z,22.85
2017-11-15T00:03:56.210Z,15.95
2017-11-15T00:04:30.077Z,20.30
2017-11-15T00:05:04.036Z,18.62
2017-11-15T00:05:38.122Z,15.75
2017-11-15T00:06:11.997Z,20.08
2017-11-15T00:06:45.893Z,23.05
2017-11-15T00:07:19.803Z,23.98
2017-11-15T00:07:53.692Z,23.35
2017-11-15T00:08:27.580Z,19.58
2017-11-15T00:09:01.584Z,18.17
2017-11-15T00:09:35.489Z,18.95
2017-11-15T00:10:09.351Z,18.05
2017-11-15T00:10:43.275Z,20.05
2017-11-15T00:11:17.186Z,15.50
2017-11-15T00:11:51.079Z,20.73
2017-11-15T00:12:24.963Z,20.60
2017-11-15T00:12:58.955Z,19.35
2017-11-15T00:13:32.852Z,27.23
2017-11-15T00:14:06.733Z,17.37
2017-11-15T00:14:40.604Z,17.27
2017-11-15T00:15:14.478Z,16.67
2017-11-15T00:15:49.261Z,19.27
2017-11-15T00:16:23.157Z,20.70
2017-11-15T00:16:57.056Z,15.30
2017-11-15T00:17:30.943Z,18.75
2017-11-15T00:18:04.818Z,16.50
2017-11-15T00:18:38.725Z,19.25
2017-11-15T00:19:12.610Z,17.12
2017-11-15T00:19:46.535Z,17.23
2017-11-15T00:20:20.487Z,18.48
2017-11-15T00:20:54.468Z,18.67
2017-11-15T00:21:28.348Z,23.73
2017-11-15T00:22:02.430Z,21.80
2017-11-15T00:22:36.313Z,21.08
2017-11-15T00:23:10.327Z,18.00
2017-11-15T00:23:44.322Z,24.70
2017-11-15T00:24:18.209Z,18.35
2017-11-15T00:24:52.112Z,21.52
2017-11-15T00:25:25.993Z,18.58
2017-11-15T00:25:59.884Z,20.65
2017-11-15T00:26:33.757Z,24.85
2017-11-15T00:27:07.681Z,17.25
2017-11-15T00:27:41.550Z,19.20
2017-11-15T00:28:15.421Z,19.95
2017-11-15T00:28:49.304Z,16.70
2017-11-15T00:29:23.488Z,17.08
2017-11-15T00:29:57.451Z,27.80
2017-11-15T00:30:31.460Z,21.05
2017-11-15T00:31:05.338Z,17.02
2017-11-15T00:31:39.443Z,22.33
2017-11-15T00:32:13.470Z,24.20
2017-11-15T00:32:47.341Z,20.20
2017-11-15T00:33:21.226Z,18.60
2017-11-15T00:33:55.103Z,18.92
2017-11-15T00:34:29.141Z,22.40
2017-11-15T00:35:03.026Z,23.52
2017-11-15T00:35:36.886Z,21.23
2017-11-15T00:36:10.819Z,23.67
2017-11-15T00:36:44.714Z,18.12
2017-11-15T00:37:18.589Z,17.83
2017-11-15T00:37:52.550Z,19.95
2017-11-15T00:38:26.415Z,19.98
2017-11-15T00:39:00.291Z,22.50
2017-11-15T00:39:34.181Z,20.00
2017-11-15T00:40:08.056Z,18.67
2017-11-15T00:40:41.914Z,22.60
2017-11-15T00:41:16.077Z,22.40
2017-11-15T00:41:50.007Z,21.30
2017-11-15T00:42:23.900Z,18.00
2017-11-15T00:42:57.777Z,19.02
2017-11-15T00:43:31.776Z,21.42
2017-11-15T00:44:05.646Z,21.92
2017-11-15T00:44:39.667Z,19.62
2017-11-15T00:45:13.534Z,21.67
2017-11-15T00:45:47.439Z,22.08
2017-11-15T00:46:21.350Z,20.30
2017-11-15T00:46:55.240Z,21.12
2017-11-15T00:47:29.339Z,19.02
2017-11-15T00:48:03.212Z,19.90
2017-11-15T00:48:37.079Z,22.70
2017-11-15T00:49:11.020Z,22.62
2017-11-15T00:49:44.934Z,22.70
2017-11-15T00:50:18.790Z,25.00
2017-11-15T00:50:52.703Z,21.30
2017-11-15T00:51:26.704Z,21.65
2017-11-15T00:52:00.580Z,23.27
2017-11-15T00:52:34.480Z,24.25
2017-11-15T00:53:08.351Z,23.85
2017-11-15T00:53:42.215Z,23.17
2017-11-15T00:54:16.382Z,18.80
2017-11-15T00:54:50.307Z,22.08
2017-11-15T00:55:24.190Z,18.98
2017-11-15T00:55:58.067Z,22.20
2017-11-15T00:56:31.940Z,16.40
2017-11-15T00:57:05.825Z,24.00
2017-11-15T00:57:39.739Z,17.73
2017-11-15T00:58:13.838Z,20.05
2017-11-15T00:58:47.727Z,20.80
2017-11-15T00:59:22.052Z,21.70
2017-11-15T00:59:55.921Z,18.10
2017-11-15T01:00:29.858Z,22.20
2017-11-15T01:01:04.053Z,20.55
2017-11-15T01:01:38.069Z,21.17
2017-11-15T01:02:11.952Z,20.92
2017-11-15T01:02:46.048Z,20.37
2017-11-15T01:03:20.076Z,31.27
2017-11-15T01:03:53.946Z,21.77
2017-11-15T01:04:27.987Z,21.17
2017-11-15T01:05:01.867Z,22.90
2017-11-15T01:05:35.892Z,24.12
2017-11-15T01:06:10.202Z,20.17
2017-11-15T01:06:44.092Z,28.30
2017-11-15T01:07:17.985Z,21.67
2017-11-15T01:07:51.899Z,19.02
2017-11-15T01:08:25.776Z,23.75
2017-11-15T01:08:59.875Z,20.73
2017-11-15T01:09:33.783Z,22.58
2017-11-15T01:10:07.666Z,26.30
2017-11-15T01:10:41.558Z,22.60
2017-11-15T01:11:15.645Z,19.08
2017-11-15T01:11:49.517Z,20.55
2017-11-15T01:12:23.389Z,21.85
2017-11-15T01:12:57.388Z,18.98
2017-11-15T01:13:31.260Z,26.42
2017-11-15T01:14:05.348Z,19.05
2017-11-15T01:14:39.230Z,19.70
2017-11-15T01:15:13.125Z,24.90
2017-11-15T01:15:47.008Z,21.27
2017-11-15T01:16:20.904Z,18.45
2017-11-15T01:16:54.786Z,24.08
2017-11-15T01:17:28.663Z,25.83
2017-11-15T01:18:02.563Z,28.40
2017-11-15T01:18:36.434Z,25.45
2017-11-15T01:19:10.439Z,24.05
2017-11-15T01:19:44.428Z,19.27
2017-11-15T01:20:18.296Z,21.80
2017-11-15T01:20:52.172Z,20.37
2017-11-15T01:21:26.052Z,24.30
2017-11-15T01:21:59.928Z,21.65
2017-11-15T01:22:33.803Z,23.58
2017-11-15T01:23:07.724Z,25.15
2017-11-15T01:23:41.627Z,23.27
2017-11-15T01:24:15.504Z,22.17
2017-11-15T01:24:49.441Z,23.55
2017-11-15T01:25:23.315Z,23.67
2017-11-15T01:25:57.186Z,24.12
2017-11-15T01:26:31.107Z,23.02
2017-11-15T01:27:05.139Z,20.25
2017-11-15T01:27:39.059Z,30.42
2017-11-15T01:28:13.059Z,21.15
2017-11-15T01:28:46.919Z,24.30
2017-11-15T01:29:20.836Z,26.25
2017-11-15T01:29:54.769Z,24.87
2017-11-15T01:30:28.874Z,40.40
2017-11-15T01:31:02.747Z,26.92
2017-11-15T01:31:36.758Z,22.67
2017-11-15T01:32:10.653Z,21.23
2017-11-15T01:32:44.675Z,24.37
2017-11-15T01:33:18.640Z,22.40
2017-11-15T01:33:52.514Z,25.17
2017-11-15T01:34:26.620Z,30.75
2017-11-15T01:35:00.494Z,25.33
2017-11-15T01:35:34.423Z,28.80
2017-11-15T01:36:08.292Z,28.75
2017-11-15T01:36:42.179Z,24.33
2017-11-15T01:37:16.224Z,26.12
2017-11-15T01:37:50.227Z,23.77
2017-11-15T01:38:24.120Z,23.87
2017-11-15T01:38:57.991Z,22.37
2017-11-15T01:39:32.010Z,28.10
2017-11-15T01:40:06.022Z,29.85
2017-11-15T01:40:40.172Z,19.80
2017-11-15T01:41:14.055Z,20.35
2017-11-15T01:41:48.024Z,21.48
2017-11-15T01:42:21.915Z,20.85
2017-11-15T01:42:55.778Z,26.17
2017-11-15T01:43:29.705Z,22.33
2017-11-15T01:44:03.778Z,23.95
2017-11-15T01:44:37.680Z,27.83
2017-11-15T01:45:11.563Z,22.62
2017-11-15T01:45:45.474Z,22.42
2017-11-15T01:46:19.340Z,22.85
2017-11-15T01:46:53.259Z,20.52
2017-11-15T01:47:27.130Z,19.60
2017-11-15T01:48:01.024Z,19.25
2017-11-15T01:48:34.921Z,21.02
2017-11-15T01:49:08.882Z,25.02
2017-11-15T01:49:42.739Z,19.83
2017-11-15T01:50:16.623Z,22.58
2017-11-15T01:50:50.517Z,25.15
2017-11-15T01:51:24.395Z,22.67
2017-11-15T01:51:58.280Z,21.37
2017-11-15T01:52:32.715Z,19.62
2017-11-15T01:53:06.723Z,28.62
2017-11-15T01:53:40.634Z,20.62
2017-11-15T01:54:14.513Z,20.70
2017-11-15T01:54:48.422Z,17.12
2017-11-15T01:55:22.300Z,24.90
2017-11-15T01:55:56.184Z,26.95
2017-11-15T01:56:30.055Z,25.40
2017-11-15T01:57:04.020Z,21.40
2017-11-15T01:57:37.988Z,22.02
2017-11-15T01:58:12.017Z,26.80
2017-11-15T01:58:45.900Z,24.67
2017-11-15T01:59:19.780Z,27.73
2017-11-15T01:59:53.650Z,25.15
2017-11-15T02:00:33.410Z,24.55
2017-11-15T02:01:13.269Z,22.30
2017-11-15T02:01:47.181Z,25.42
2017-11-15T02:02:21.212Z,24.48
2017-11-15T02:02:55.087Z,29.67
2017-11-15T02:03:28.976Z,19.50
2017-11-15T02:04:02.884Z,27.50
2017-11-15T02:04:36.803Z,29.42
2017-11-15T02:05:10.663Z,24.23
2017-11-15T02:05:44.578Z,21.95
2017-11-15T02:06:18.456Z,20.40
2017-11-15T02:06:52.322Z,21.23
2017-11-15T02:07:26.192Z,21.67
2017-11-15T02:08:00.092Z,21.20
2017-11-15T02:08:34.279Z,22.00
2017-11-15T02:09:08.304Z,22.30
2017-11-15T02:09:42.170Z,31.12
2017-11-15T02:10:16.271Z,24.75
2017-11-15T02:10:50.143Z,20.52
2017-11-15T02:11:24.020Z,21.40
2017-11-15T02:11:57.891Z,25.45
2017-11-15T02:12:31.759Z,22.52
2017-11-15T02:13:05.627Z,21.50
2017-11-15T02:13:39.648Z,28.95
2017-11-15T02:14:13.527Z,24.77
2017-11-15T02:14:47.570Z,30.95
2017-11-15T02:15:21.649Z,21.12
2017-11-15T02:15:55.515Z,20.50
2017-11-15T02:16:29.393Z,25.50
2017-11-15T02:17:03.320Z,27.33
2017-11-15T02:17:37.194Z,21.73
2017-11-15T02:18:11.128Z,26.90
2017-11-15T02:18:45.109Z,24.73
2017-11-15T02:19:18.981Z,27.98
2017-11-15T02:19:52.850Z,23.50
2017-11-15T02:20:26.723Z,20.73
2017-11-15T02:21:00.693Z,23.20
2017-11-15T02:21:34.565Z,20.75
2017-11-15T02:22:08.993Z,22.58
2017-11-15T02:22:42.859Z,20.95
2017-11-15T02:23:17.268Z,24.70
2017-11-15T02:23:51.152Z,22.25
2017-11-15T02:24:25.047Z,21.15
2017-11-15T02:24:58.908Z,28.35
2017-11-15T02:25:32.986Z,28.17
2017-11-15T02:26:06.895Z,24.83
2017-11-15T02:26:40.758Z,24.95
2017-11-15T02:27:14.631Z,27.77
2017-11-15T02:27:48.513Z,23.38
2017-11-15T02:28:22.369Z,24.12
2017-11-15T02:28:56.283Z,23.90
2017-11-15T02:29:30.171Z,24.30
2017-11-15T02:30:04.046Z,27.65
2017-11-15T02:30:37.904Z,29.12
2017-11-15T02:31:11.780Z,25.52
2017-11-15T02:31:45.727Z,27.42
2017-11-15T02:32:19.604Z,24.40
2017-11-15T02:32:53.479Z,31.02
2017-11-15T02:33:27.357Z,27.00
2017-11-15T02:34:01.255Z,25.90
2017-11-15T02:34:35.147Z,23.95
2017-11-15T02:35:09.095Z,27.90
2017-11-15T02:35:43.014Z,28.12
2017-11-15T02:36:16.927Z,25.92
2017-11-15T02:36:50.986Z,28.85
2017-11-15T02:37:24.863Z,25.45
2017-11-15T02:37:58.792Z,27.33
2017-11-15T02:38:32.673Z,27.80
2017-11-15T02:39:06.544Z,23.33
2017-11-15T02:39:40.666Z,29.75
2017-11-15T02:40:14.540Z,22.98
2017-11-15T02:40:48.410Z,26.58
2017-11-15T02:41:22.280Z,29.77
2017-11-15T02:41:56.352Z,22.92
2017-11-15T02:42:30.220Z,27.02
2017-11-15T02:43:04.100Z,25.77
2017-11-15T02:43:37.968Z,23.33
2017-11-15T02:44:11.838Z,24.87
2017-11-15T02:44:45.723Z,26.33
2017-11-15T02:45:19.603Z,27.35
2017-11-15T02:45:53.471Z,25.37
2017-11-15T02:46:27.364Z,25.17
2017-11-15T02:47:01.255Z,24.00
2017-11-15T02:47:35.131Z,25.02
2017-11-15T02:48:09.001Z,25.62
2017-11-15T02:48:42.900Z,23.12
2017-11-15T02:49:16.773Z,25.48
2017-11-15T02:49:50.658Z,23.17
2017-11-15T02:50:24.555Z,23.80
2017-11-15T02:50:58.440Z,23.17
2017-11-15T02:51:32.326Z,25.58
2017-11-15T02:52:06.243Z,23.45
2017-11-15T02:52:40.119Z,28.83
2017-11-15T02:53:13.984Z,27.67
2017-11-15T02:53:47.860Z,27.48
2017-11-15T02:54:21.856Z,27.73
2017-11-15T02:54:55.719Z,22.08
2017-11-15T02:55:29.630Z,32.40
2017-11-15T02:56:03.518Z,26.62
2017-11-15T02:56:37.390Z,22.95
2017-11-15T02:57:11.288Z,21.10
2017-11-15T02:57:45.191Z,27.80
2017-11-15T02:58:19.229Z,24.40
2017-11-15T02:58:53.105Z,22.83
2017-11-15T02:59:26.994Z,24.02
2017-11-15T03:00:00.876Z,22.67
2017-11-15T03:00:34.897Z,24.37
2017-11-15T03:01:08.780Z,26.98
2017-11-15T03:01:42.651Z,23.55
2017-11-15T03:02:16.530Z,23.00
2017-11-15T03:02:50.404Z,24.95
2017-11-15T03:03:24.399Z,21.90
2017-11-15T03:03:58.494Z,21.20
2017-11-15T03:04:32.362Z,26.42
2017-11-15T03:05:06.463Z,21.65
2017-11-15T03:05:40.365Z,22.95
2017-11-15T03:06:14.242Z,27.70
2017-11-15T03:06:48.112Z,27.52
2017-11-15T03:07:22.172Z,24.65
2017-11-15T03:07:56.040Z,30.62
2017-11-15T03:08:30.068Z,22.37
2017-11-15T03:09:04.249Z,21.08
2017-11-15T03:09:38.123Z,25.83
2017-11-15T03:10:11.999Z,21.92
2017-11-15T03:10:45.933Z,24.83
2017-11-15T03:11:20.155Z,23.25
2017-11-15T03:11:54.044Z,25.45
2017-11-15T03:12:28.137Z,30.42
2017-11-15T03:13:01.998Z,23.75
2017-11-15T03:13:35.847Z,25.52
2017-11-15T03:14:09.824Z,30.85
2017-11-15T03:14:43.823Z,22.15
2017-11-15T03:15:17.820Z,30.85
2017-11-15T03:15:51.820Z,29.23
2017-11-15T03:16:25.824Z,24.35
2017-11-15T03:16:59.717Z,24.30
2017-11-15T03:17:33.703Z,27.90
2017-11-15T03:18:07.576Z,19.73
2017-11-15T03:18:41.443Z,27.45
2017-11-15T03:19:15.444Z,23.48
2017-11-15T03:19:49.325Z,27.33
2017-11-15T03:20:23.203Z,26.23
2017-11-15T03:20:57.180Z,22.55
2017-11-15T03:21:31.039Z,25.85
2017-11-15T03:22:04.908Z,22.77
2017-11-15T03:22:39.066Z,24.77
2017-11-15T03:23:12.930Z,21.27
2017-11-15T03:23:46.794Z,25.73
2017-11-15T03:24:20.865Z,21.95
2017-11-15T03:24:54.777Z,23.23
2017-11-15T03:25:28.745Z,26.33
2017-11-15T03:26:02.959Z,24.60
2017-11-15T03:26:36.963Z,23.83
2017-11-15T03:27:10.859Z,25.73
2017-11-15T03:27:44.732Z,24.92
2017-11-15T03:28:18.591Z,24.92
2017-11-15T03:28:52.473Z,26.23
2017-11-15T03:29:26.360Z,28.80
2017-11-15T03:30:00.346Z,26.75
2017-11-15T03:30:34.357Z,28.45
2017-11-15T03:31:08.365Z,20.05
2017-11-15T03:31:42.236Z,31.60
2017-11-15T03:32:16.119Z,26.92
2017-11-15T03:32:49.995Z,24.45
2017-11-15T03:33:24.022Z,27.90
2017-11-15T03:33:58.000Z,28.60
2017-11-15T03:34:31.901Z,31.95
2017-11-15T03:35:05.767Z,23.58
2017-11-15T03:35:39.662Z,28.80
2017-11-15T03:36:13.681Z,23.17
2017-11-15T03:36:47.555Z,27.27
2017-11-15T03:37:21.425Z,27.50
2017-11-15T03:37:55.374Z,27.95
2017-11-15T03:38:29.248Z,25.98
2017-11-15T03:39:03.108Z,25.85
2017-11-15T03:39:36.975Z,21.40
2017-11-15T03:40:10.861Z,24.08
2017-11-15T03:40:44.841Z,23.83
2017-11-15T03:41:18.714Z,25.10
2017-11-15T03:41:52.593Z,23.05
2017-11-15T03:42:26.462Z,25.58
2017-11-15T03:43:00.333Z,34.92
2017-11-15T03:43:34.187Z,25.33
2017-11-15T03:44:08.325Z,26.75
2017-11-15T03:44:42.178Z,25.50
2017-11-15T03:45:16.063Z,36.58
2017-11-15T03:45:50.318Z,24.55
2017-11-15T03:46:24.183Z,32.85
2017-11-15T03:46:58.069Z,26.92
2017-11-15T03:47:31.930Z,24.45
2017-11-15T03:48:05.807Z,29.17
2017-11-15T03:48:39.675Z,35.97
2017-11-15T03:49:13.544Z,29.48
2017-11-15T03:49:47.428Z,27.62
2017-11-15T03:50:21.582Z,29.20
2017-11-15T03:50:55.476Z,36.92
2017-11-15T03:51:29.352Z,29.25
2017-11-15T03:52:03.222Z,31.90
2017-11-15T03:52:37.276Z,22.48
2017-11-15T03:53:11.151Z,23.98
2017-11-15T03:53:45.008Z,23.17
2017-11-15T03:54:18.946Z,25.00
2017-11-15T03:54:52.944Z,25.62
2017-11-15T03:55:26.858Z,26.27
2017-11-15T03:56:00.736Z,23.05
2017-11-15T03:56:34.622Z,30.58
2017-11-15T03:57:08.599Z,26.23
2017-11-15T03:57:42.482Z,24.27
2017-11-15T03:58:16.427Z,31.75
2017-11-15T03:58:50.295Z,26.98
2017-11-15T03:59:24.164Z,24.48
2017-11-15T03:59:58.098Z,24.10
2017-11-15T04:00:32.091Z,28.85
2017-11-15T04:01:06.200Z,27.08
2017-11-15T04:01:40.068Z,28.50
2017-11-15T04:02:13.948Z,23.92
2017-11-15T04:02:47.838Z,26.15
2017-11-15T04:03:21.780Z,26.27
2017-11-15T04:03:55.663Z,27.05
2017-11-15T04:04:29.682Z,22.85
2017-11-15T04:05:03.553Z,24.85
2017-11-15T04:05:37.573Z,35.30
2017-11-15T04:06:11.455Z,29.63
2017-11-15T04:06:45.331Z,24.52
2017-11-15T04:07:19.467Z,34.53
2017-11-15T04:07:53.340Z,28.10
2017-11-15T04:08:27.203Z,31.42
2017-11-15T04:09:01.148Z,31.92
2017-11-15T04:09:35.260Z,29.45
2017-11-15T04:10:09.238Z,32.47
2017-11-15T04:10:43.245Z,32.17
2017-11-15T04:11:17.120Z,32.35
2017-11-15T04:11:51.148Z,30.58
2017-11-15T04:12:25.024Z,29.30
2017-11-15T04:12:58.904Z,29.33
2017-11-15T04:13:32.835Z,29.80
2017-11-15T04:14:06.710Z,24.25
2017-11-15T04:14:40.736Z,30.70
2017-11-15T04:15:14.937Z,26.20
2017-11-15T04:15:48.932Z,30.20
2017-11-15T04:16:22.864Z,31.70
2017-11-15T04:16:56.903Z,28.98
2017-11-15T04:17:30.784Z,33.78
2017-11-15T04:18:04.647Z,32.63
2017-11-15T04:18:38.526Z,30.60
2017-11-15T04:19:12.415Z,30.33
2017-11-15T04:19:46.278Z,28.27
2017-11-15T04:20:20.151Z,33.65
2017-11-15T04:20:54.189Z,27.35
2017-11-15T04:21:28.097Z,28.58
2017-11-15T04:22:02.118Z,29.48
2017-11-15T04:22:36.175Z,31.00
2017-11-15T04:23:10.163Z,30.25
2017-11-15T04:23:44.182Z,35.15
2017-11-15T04:24:18.043Z,33.83
2017-11-15T04:24:51.959Z,28.10
2017-11-15T04:25:25.828Z,36.00
2017-11-15T04:25:59.703Z,34.22
2017-11-15T04:26:34.218Z,28.42
2017-11-15T04:27:08.171Z,33.35
2017-11-15T04:27:42.024Z,30.62
2017-11-15T04:28:16.063Z,29.92
2017-11-15T04:28:49.940Z,28.15
2017-11-15T04:29:23.809Z,30.42
2017-11-15T04:29:57.688Z,30.15
2017-11-15T04:30:31.557Z,34.20
2017-11-15T04:31:05.451Z,32.63
2017-11-15T04:31:39.337Z,30.73
2017-11-15T04:32:13.234Z,30.27
2017-11-15T04:32:47.116Z,30.00
2017-11-15T04:33:21.020Z,26.92
2017-11-15T04:33:54.901Z,27.80
2017-11-15T04:34:28.799Z,29.77
2017-11-15T04:35:02.790Z,31.90
2017-11-15T04:35:36.675Z,33.00
2017-11-15T04:36:10.691Z,37.72
2017-11-15T04:36:44.579Z,38.92
2017-11-15T04:37:18.438Z,25.80
2017-11-15T04:37:52.305Z,27.70
2017-11-15T04:38:26.376Z,29.48
2017-11-15T04:39:00.258Z,26.60
2017-11-15T04:39:34.130Z,33.45
2017-11-15T04:40:07.995Z,35.75
2017-11-15T04:40:41.901Z,27.55
2017-11-15T04:41:15.779Z,36.15
2017-11-15T04:41:49.769Z,34.33
2017-11-15T04:42:23.766Z,33.92
2017-11-15T04:42:57.636Z,34.17
2017-11-15T04:43:31.521Z,31.25
2017-11-15T04:44:05.429Z,28.05
2017-11-15T04:44:39.307Z,30.50
2017-11-15T04:45:13.217Z,31.45
2017-11-15T04:45:47.406Z,31.65
2017-11-15T04:46:21.268Z,34.45
2017-11-15T04:46:55.173Z,32.00
2017-11-15T04:47:29.157Z,38.80
2017-11-15T04:48:03.024Z,30.02
2017-11-15T04:48:36.920Z,33.80
2017-11-15T04:49:11.084Z,34.40
2017-11-15T04:49:44.945Z,31.00
2017-11-15T04:50:18.891Z,33.63
2017-11-15T04:50:52.766Z,38.47
2017-11-15T04:51:26.622Z,34.08
2017-11-15T04:52:00.581Z,29.45
2017-11-15T04:52:34.453Z,30.62
2017-11-15T04:53:08.479Z,33.70
2017-11-15T04:53:42.387Z,36.13
2017-11-15T04:54:16.355Z,27.90
2017-11-15T04:54:50.232Z,28.77
2017-11-15T04:55:24.254Z,33.60
2017-11-15T04:55:58.129Z,34.67
2017-11-15T04:56:32.068Z,31.60
2017-11-15T04:57:05.952Z,33.97
2017-11-15T04:57:39.816Z,31.50
2017-11-15T04:58:13.714Z,40.47
2017-11-15T04:58:47.700Z,27.33
2017-11-15T04:59:21.723Z,27.48
2017-11-15T04:59:55.603Z,33.17
2017-11-15T05:00:29.520Z,33.63
2017-11-15T05:01:03.425Z,35.85
2017-11-15T05:01:37.400Z,26.75
2017-11-15T05:02:11.276Z,34.10
2017-11-15T05:02:45.165Z,28.55
2017-11-15T05:03:19.048Z,31.17
2017-11-15T05:03:53.200Z,28.80
2017-11-15T05:04:27.073Z,27.15
2017-11-15T05:05:00.948Z,32.83
2017-11-15T05:05:34.971Z,31.27
2017-11-15T05:06:09.254Z,33.35
2017-11-15T05:06:43.169Z,28.83
2017-11-15T05:07:17.044Z,32.08
2017-11-15T05:07:50.925Z,35.85
2017-11-15T05:08:24.871Z,33.17
2017-11-15T05:08:58.747Z,33.50
2017-11-15T05:09:32.630Z,31.70
2017-11-15T05:10:06.650Z,34.03
2017-11-15T05:10:40.531Z,28.10
2017-11-15T05:11:14.652Z,33.05
2017-11-15T05:11:48.570Z,28.98
2017-11-15T05:12:22.538Z,29.95
2017-11-15T05:12:56.443Z,30.62
2017-11-15T05:13:30.642Z,32.38
2017-11-15T05:14:04.528Z,34.75
2017-11-15T05:14:38.435Z,37.55
2017-11-15T05:15:12.352Z,33.90
2017-11-15T05:15:46.229Z,35.42
2017-11-15T05:16:20.132Z,35.40
2017-11-15T05:16:54.005Z,34.20
2017-11-15T05:17:27.897Z,31.67
2017-11-15T05:18:01.811Z,34.45
2017-11-15T05:18:35.674Z,32.97
2017-11-15T05:19:09.547Z,33.35
2017-11-15T05:19:43.586Z,30.08
2017-11-15T05:20:17.449Z,28.50
2017-11-15T05:20:51.321Z,35.70
2017-11-15T05:21:25.574Z,35.92
2017-11-15T05:21:59.442Z,28.27
2017-11-15T05:22:33.317Z,32.33
2017-11-15T05:23:07.261Z,30.25
2017-11-15T05:23:41.130Z,33.15
2017-11-15T05:24:14.998Z,31.65
2017-11-15T05:24:48.948Z,30.15
2017-11-15T05:25:22.844Z,34.42
2017-11-15T05:25:56.723Z,32.90
2017-11-15T05:26:30.635Z,37.38
2017-11-15T05:27:04.499Z,34.97
2017-11-15T05:27:38.483Z,33.97
2017-11-15T05:28:12.372Z,32.78
2017-11-15T05:28:46.249Z,37.88
2017-11-15T05:29:20.103Z,30.00
2017-11-15T05:29:54.017Z,32.00
2017-11-15T05:30:27.893Z,33.40
2017-11-15T05:31:01.898Z,33.17
2017-11-15T05:31:36.500Z,30.23
2017-11-15T05:32:10.366Z,35.80
2017-11-15T05:32:44.436Z,34.00
2017-11-15T05:33:18.323Z,35.65
2017-11-15T05:33:52.195Z,32.08
2017-11-15T05:34:26.190Z,34.83
2017-11-15T05:35:00.232Z,35.72
2017-11-15T05:35:34.109Z,34.58
2017-11-15T05:36:08.136Z,35.00
2017-11-15T05:36:42.014Z,33.97
2017-11-15T05:37:15.899Z,32.58
2017-11-15T05:37:49.886Z,32.38
2017-11-15T05:38:23.871Z,39.15
2017-11-15T05:38:57.990Z,35.25
2017-11-15T05:39:31.905Z,31.65
2017-11-15T05:40:05.791Z,32.40
2017-11-15T05:40:39.757Z,34.45
2017-11-15T05:41:13.622Z,30.25
2017-11-15T05:41:47.532Z,31.90
2017-11-15T05:42:21.404Z,28.80
2017-11-15T05:42:55.354Z,33.55
2017-11-15T05:43:29.238Z,33.03
2017-11-15T05:44:03.108Z,33.95
2017-11-15T05:44:37.139Z,33.17
2017-11-15T05:45:11.012Z,33.90
2017-11-15T05:45:44.878Z,36.47
2017-11-15T05:46:18.751Z,30.12
2017-11-15T05:46:52.636Z,33.60
2017-11-15T05:47:26.716Z,34.13
2017-11-15T05:48:00.724Z,29.98
2017-11-15T05:48:34.826Z,30.30
2017-11-15T05:49:08.778Z,34.20
2017-11-15T05:49:42.699Z,33.60
2017-11-15T05:50:16.695Z,35.95
2017-11-15T05:50:50.571Z,35.30
2017-11-15T05:51:24.879Z,41.28
2017-11-15T05:51:58.784Z,37.13
2017-11-15T05:52:32.699Z,31.62
2017-11-15T05:53:06.596Z,36.00
2017-11-15T05:53:40.677Z,33.95
2017-11-15T05:54:15.564Z,35.38
2017-11-15T05:54:49.432Z,30.52
2017-11-15T05:55:23.298Z,40.15
2017-11-15T05:55:57.164Z,33.30
2017-11-15T05:56:31.092Z,31.75
2017-11-15T05:57:04.979Z,31.48
2017-11-15T05:57:38.866Z,31.90
2017-11-15T05:58:13.067Z,28.58
2017-11-15T05:58:46.945Z,27.58
2017-11-15T06:00:09.447Z,34.10
2017-11-15T06:00:43.339Z,28.38
2017-11-15T06:01:17.421Z,33.15
2017-11-15T06:01:51.604Z,32.60
2017-11-15T06:02:25.740Z,34.72
2017-11-15T06:02:59.692Z,33.35
2017-11-15T06:03:33.865Z,34.33
2017-11-15T06:04:07.755Z,34.65
2017-11-15T06:04:41.841Z,38.53
2017-11-15T06:05:15.791Z,35.60
2017-11-15T06:05:49.675Z,34.60
2017-11-15T06:06:23.788Z,32.10
2017-11-15T06:06:57.675Z,35.95
2017-11-15T06:07:31.585Z,35.15
2017-11-15T06:08:05.468Z,35.78
2017-11-15T06:08:39.365Z,36.50
2017-11-15T06:09:13.359Z,36.20
2017-11-15T06:09:47.253Z,33.30
2017-11-15T06:10:21.175Z,33.50
2017-11-15T06:10:55.114Z,40.42
2017-11-15T06:11:29.160Z,33.25
2017-11-15T06:12:03.105Z,34.13
2017-11-15T06:12:36.930Z,34.78
2017-11-15T06:13:10.872Z,36.47
2017-11-15T06:13:44.850Z,33.95
2017-11-15T06:14:18.712Z,31.80
2017-11-15T06:14:52.592Z,34.65
2017-11-15T06:15:26.619Z,37.80
2017-11-15T06:16:00.560Z,41.78
2017-11-15T06:16:34.443Z,47.95
2017-11-15T06:17:08.386Z,51.03
2017-11-15T06:17:42.298Z,54.50
2017-11-15T06:18:16.373Z,52.35
2017-11-15T06:18:50.346Z,43.45
2017-11-15T06:19:24.414Z,43.22
2017-11-15T06:19:58.403Z,44.50
2017-11-15T06:20:32.250Z,56.63
2017-11-15T06:21:06.342Z,49.15
2017-11-15T06:21:40.252Z,39.67
2017-11-15T06:22:14.223Z,48.03
2017-11-15T06:22:48.192Z,44.40
2017-11-15T06:23:22.078Z,43.65
2017-11-15T06:23:55.895Z,40.67
2017-11-15T06:24:29.868Z,61.33
2017-11-15T06:25:03.893Z,67.30
2017-11-15T06:25:37.870Z,83.70
2017-11-15T06:26:12.104Z,73.68
2017-11-15T06:26:46.118Z,44.35
2017-11-15T06:27:19.951Z,39.22
2017-11-15T06:27:53.854Z,36.00
2017-11-15T06:28:27.763Z,33.95
2017-11-15T06:29:01.758Z,31.65
2017-11-15T06:29:35.668Z,37.40
2017-11-15T06:30:09.530Z,36.65
2017-11-15T06:30:43.725Z,38.95
2017-11-15T06:31:18.443Z,31.45
2017-11-15T06:31:52.442Z,39.55
2017-11-15T06:32:26.399Z,41.42
2017-11-15T06:33:00.387Z,33.88
2017-11-15T06:33:34.283Z,47.92
2017-11-15T06:34:08.402Z,36.22
2017-11-15T06:34:42.189Z,33.22
2017-11-15T06:35:16.093Z,38.58
2017-11-15T06:35:50.058Z,37.55
2017-11-15T06:36:23.994Z,32.78
2017-11-15T06:36:57.944Z,34.13
2017-11-15T06:37:31.882Z,32.25
2017-11-15T06:38:05.772Z,33.10
2017-11-15T06:38:41.928Z,35.47
2017-11-15T06:39:15.957Z,34.88
2017-11-15T06:39:49.937Z,37.03
2017-11-15T06:40:23.918Z,39.13
2017-11-15T06:40:57.807Z,37.38
2017-11-15T06:41:31.847Z,37.13
2017-11-15T06:42:05.748Z,36.20
2017-11-15T06:42:40.275Z,43.20
2017-11-15T06:43:14.179Z,41.00
2017-11-15T06:43:48.068Z,37.25
2017-11-15T06:44:22.060Z,40.97
2017-11-15T06:44:55.987Z,40.15
2017-11-15T06:45:29.958Z,38.60
2017-11-15T06:46:03.880Z,44.78
2017-11-15T06:46:37.825Z,32.75
2017-11-15T06:47:11.744Z,34.08
2017-11-15T06:47:45.630Z,35.83
2017-11-15T06:48:19.584Z,43.47
2017-11-15T06:48:53.461Z,39.92
2017-11-15T06:49:27.329Z,50.90
2017-11-15T06:50:01.205Z,46.88
2017-11-15T06:50:35.124Z,50.53
2017-11-15T06:51:09.835Z,55.30
2017-11-15T06:51:43.692Z,61.63
2017-11-15T06:52:17.649Z,68.28
2017-11-15T06:52:52.098Z,58.83
2017-11-15T06:53:25.982Z,47.30
2017-11-15T06:53:59.882Z,66.22
2017-11-15T06:54:33.848Z,49.65
2017-11-15T06:55:08.415Z,41.63
2017-11-15T06:55:42.310Z,37.97
2017-11-15T06:56:16.799Z,35.05
2017-11-15T06:56:50.665Z,36.20
2017-11-15T06:57:24.722Z,37.55
2017-11-15T06:57:58.622Z,36.42
2017-11-15T06:58:32.495Z,39.45
2017-11-15T06:59:06.384Z,36.20
2017-11-15T06:59:40.282Z,35.22
2017-11-15T07:00:14.176Z,34.60
2017-11-15T07:00:48.177Z,35.28
2017-11-15T07:01:22.051Z,37.50
2017-11-15T07:01:55.939Z,33.40
2017-11-15T07:02:29.799Z,43.00
2017-11-15T07:03:03.707Z,34.58
2017-11-15T07:03:39.429Z,31.62
2017-11-15T07:04:13.714Z,29.02
2017-11-15T07:04:47.808Z,35.08
2017-11-15T07:05:21.874Z,38.08
2017-11-15T07:05:55.762Z,34.03
2017-11-15T07:06:30.482Z,30.20
2017-11-15T07:07:04.373Z,32.58
2017-11-15T07:07:38.261Z,31.65
2017-11-15T07:08:12.124Z,29.73
2017-11-15T07:08:46.070Z,37.15
2017-11-15T07:09:19.957Z,30.45
2017-11-15T07:09:54.032Z,36.03
2017-11-15T07:10:28.090Z,43.55
2017-11-15T07:11:02.208Z,44.40
2017-11-15T07:11:36.116Z,38.58
2017-11-15T07:12:10.203Z,35.92
2017-11-15T07:12:44.172Z,35.53
2017-11-15T07:13:18.055Z,33.33
2017-11-15T07:13:52.207Z,33.78
2017-11-15T07:14:26.090Z,31.10
2017-11-15T07:15:00.132Z,38.08
2017-11-15T07:15:34.187Z,32.03
2017-11-15T07:16:08.095Z,29.60
2017-11-15T07:16:41.972Z,31.35
2017-11-15T07:17:15.922Z,35.35
2017-11-15T07:17:50.165Z,35.65
2017-11-15T07:18:24.142Z,31.42